sensor_id;sensor_type;location;lat;lon;timestamp;P1;durP1;ratioP1;P2;durP2;ratioP2
16543;SDS011;8384;47.996;7.786;2023-10-13T00:00:28;5.77;;;3.17;;
16543;SDS011;8384;47.996;7.786;2023-10-13T00:03:01;7.07;;;3.72;;
16543;SDS011;8384;47.996;7.786;2023-10-13T00:05:30;7.40;;;3.20;;
16543;SDS011;8384;47.996;7.786;2023-10-13T00:07:59;4.23;;;3.30;;
16543;SDS011;8384;47.996;7.786;2023-10-13T00:10:26;5.70;;;3.40;;
16543;SDS011;8384;47.996;7.786;2023-10-13T00:12:55;7.57;;;3.60;;
16543;SDS011;8384;47.996;7.786;2023-10-13T00:15:31;8.45;;;3.60;;
16543;SDS011;8384;47.996;7.786;2023-10-13T00:18:04;6.05;;;3.55;;
16543;SDS011;8384;47.996;7.786;2023-10-13T00:20:37;6.60;;;3.45;;
16543;SDS011;8384;47.996;7.786;2023-10-13T00:23:04;6.43;;;3.28;;
16543;SDS011;8384;47.996;7.786;2023-10-13T00:25:30;7.72;;;3.88;;
16543;SDS011;8384;47.996;7.786;2023-10-13T00:28:08;5.43;;;3.60;;
16543;SDS011;8384;47.996;7.786;2023-10-13T00:30:34;6.33;;;3.30;;
16543;SDS011;8384;47.996;7.786;2023-10-13T00:32:59;8.00;;;3.63;;
16543;SDS011;8384;47.996;7.786;2023-10-13T00:35:25;5.80;;;3.30;;
16543;SDS011;8384;47.996;7.786;2023-10-13T00:38:02;5.95;;;3.22;;
16543;SDS011;8384;47.996;7.786;2023-10-13T00:40:43;6.85;;;3.60;;
16543;SDS011;8384;47.996;7.786;2023-10-13T00:43:16;8.00;;;3.50;;
16543;SDS011;8384;47.996;7.786;2023-10-13T00:50:58;4.77;;;3.33;;
16543;SDS011;8384;47.996;7.786;2023-10-13T00:53:27;5.65;;;3.25;;
16543;SDS011;8384;47.996;7.786;2023-10-13T00:55:54;7.72;;;3.33;;
16543;SDS011;8384;47.996;7.786;2023-10-13T00:58:22;6.65;;;3.47;;
16543;SDS011;8384;47.996;7.786;2023-10-13T01:00:50;5.93;;;3.40;;
16543;SDS011;8384;47.996;7.786;2023-10-13T01:03:22;7.13;;;3.60;;
16543;SDS011;8384;47.996;7.786;2023-10-13T01:05:52;7.47;;;3.85;;
16543;SDS011;8384;47.996;7.786;2023-10-13T01:08:30;6.40;;;3.65;;
16543;SDS011;8384;47.996;7.786;2023-10-13T01:10:59;6.60;;;3.50;;
16543;SDS011;8384;47.996;7.786;2023-10-13T01:13:25;5.45;;;3.40;;
16543;SDS011;8384;47.996;7.786;2023-10-13T01:15:52;5.88;;;3.30;;
16543;SDS011;8384;47.996;7.786;2023-10-13T01:18:17;6.60;;;3.53;;
16543;SDS011;8384;47.996;7.786;2023-10-13T01:20:43;7.15;;;3.33;;
16543;SDS011;8384;47.996;7.786;2023-10-13T01:23:17;5.82;;;3.63;;
16543;SDS011;8384;47.996;7.786;2023-10-13T01:25:49;6.05;;;3.50;;
16543;SDS011;8384;47.996;7.786;2023-10-13T01:28:14;6.50;;;3.37;;
16543;SDS011;8384;47.996;7.786;2023-10-13T01:30:42;8.07;;;3.35;;
16543;SDS011;8384;47.996;7.786;2023-10-13T01:33:08;5.97;;;3.50;;
16543;SDS011;8384;47.996;7.786;2023-10-13T01:35:35;7.10;;;3.58;;
16543;SDS011;8384;47.996;7.786;2023-10-13T01:38:06;6.07;;;3.17;;
16543;SDS011;8384;47.996;7.786;2023-10-13T01:40:32;7.30;;;3.60;;
16543;SDS011;8384;47.996;7.786;2023-10-13T01:43:00;9.52;;;3.60;;
16543;SDS011;8384;47.996;7.786;2023-10-13T01:45:25;8.33;;;3.63;;
16543;SDS011;8384;47.996;7.786;2023-10-13T01:47:54;6.72;;;3.30;;
16543;SDS011;8384;47.996;7.786;2023-10-13T01:50:20;9.02;;;3.60;;
16543;SDS011;8384;47.996;7.786;2023-10-13T01:52:55;5.95;;;3.67;;
16543;SDS011;8384;47.996;7.786;2023-10-13T01:55:35;7.38;;;3.42;;
16543;SDS011;8384;47.996;7.786;2023-10-13T01:58:04;6.65;;;3.70;;
16543;SDS011;8384;47.996;7.786;2023-10-13T02:00:38;7.57;;;3.83;;
16543;SDS011;8384;47.996;7.786;2023-10-13T02:03:07;5.50;;;3.47;;
16543;SDS011;8384;47.996;7.786;2023-10-13T02:05:39;7.57;;;3.90;;
16543;SDS011;8384;47.996;7.786;2023-10-13T02:08:08;7.45;;;3.75;;
16543;SDS011;8384;47.996;7.786;2023-10-13T02:10:36;7.88;;;3.97;;
16543;SDS011;8384;47.996;7.786;2023-10-13T02:13:08;7.45;;;3.70;;
16543;SDS011;8384;47.996;7.786;2023-10-13T02:15:40;5.80;;;3.40;;
16543;SDS011;8384;47.996;7.786;2023-10-13T02:18:07;5.75;;;3.50;;
16543;SDS011;8384;47.996;7.786;2023-10-13T02:20:34;7.28;;;3.50;;
16543;SDS011;8384;47.996;7.786;2023-10-13T02:23:06;6.15;;;3.30;;
16543;SDS011;8384;47.996;7.786;2023-10-13T02:25:35;6.55;;;3.47;;
16543;SDS011;8384;47.996;7.786;2023-10-13T02:28:07;5.30;;;3.53;;
16543;SDS011;8384;47.996;7.786;2023-10-13T02:30:47;6.53;;;3.45;;
16543;SDS011;8384;47.996;7.786;2023-10-13T02:33:16;5.25;;;3.28;;
16543;SDS011;8384;47.996;7.786;2023-10-13T02:35:54;4.73;;;3.23;;
16543;SDS011;8384;47.996;7.786;2023-10-13T02:38:20;5.50;;;3.60;;
16543;SDS011;8384;47.996;7.786;2023-10-13T02:40:57;4.97;;;3.00;;
16543;SDS011;8384;47.996;7.786;2023-10-13T02:43:30;5.35;;;3.55;;
16543;SDS011;8384;47.996;7.786;2023-10-13T02:45:58;5.25;;;3.50;;
16543;SDS011;8384;47.996;7.786;2023-10-13T02:48:24;5.57;;;3.67;;
16543;SDS011;8384;47.996;7.786;2023-10-13T02:50:58;4.68;;;3.60;;
16543;SDS011;8384;47.996;7.786;2023-10-13T02:53:27;5.30;;;3.90;;
16543;SDS011;8384;47.996;7.786;2023-10-13T02:55:54;4.45;;;3.85;;
16543;SDS011;8384;47.996;7.786;2023-10-13T02:58:22;5.25;;;3.88;;
16543;SDS011;8384;47.996;7.786;2023-10-13T03:00:47;6.35;;;4.13;;
16543;SDS011;8384;47.996;7.786;2023-10-13T03:03:12;5.15;;;3.83;;
16543;SDS011;8384;47.996;7.786;2023-10-13T03:05:43;6.03;;;4.00;;
16543;SDS011;8384;47.996;7.786;2023-10-13T03:08:08;5.23;;;4.13;;
16543;SDS011;8384;47.996;7.786;2023-10-13T03:10:36;6.35;;;4.03;;
16543;SDS011;8384;47.996;7.786;2023-10-13T03:13:05;5.30;;;3.90;;
16543;SDS011;8384;47.996;7.786;2023-10-13T03:15:33;5.13;;;4.10;;
16543;SDS011;8384;47.996;7.786;2023-10-13T03:18:00;4.90;;;3.80;;
16543;SDS011;8384;47.996;7.786;2023-10-13T03:20:26;6.57;;;4.00;;
16543;SDS011;8384;47.996;7.786;2023-10-13T03:22:57;5.05;;;3.83;;
16543;SDS011;8384;47.996;7.786;2023-10-13T03:25:24;5.03;;;3.83;;
16543;SDS011;8384;47.996;7.786;2023-10-13T03:27:54;7.57;;;4.07;;
16543;SDS011;8384;47.996;7.786;2023-10-13T03:30:20;4.90;;;3.80;;
16543;SDS011;8384;47.996;7.786;2023-10-13T03:32:47;6.00;;;4.32;;
16543;SDS011;8384;47.996;7.786;2023-10-13T03:35:19;6.38;;;4.30;;
16543;SDS011;8384;47.996;7.786;2023-10-13T03:38:04;5.87;;;4.07;;
16543;SDS011;8384;47.996;7.786;2023-10-13T03:40:39;7.20;;;4.38;;
16543;SDS011;8384;47.996;7.786;2023-10-13T03:43:05;5.10;;;4.00;;
16543;SDS011;8384;47.996;7.786;2023-10-13T03:45:37;5.63;;;4.32;;
16543;SDS011;8384;47.996;7.786;2023-10-13T03:48:08;8.80;;;4.27;;
16543;SDS011;8384;47.996;7.786;2023-10-13T03:50:38;6.35;;;3.88;;
16543;SDS011;8384;47.996;7.786;2023-10-13T03:53:22;5.65;;;4.05;;
16543;SDS011;8384;47.996;7.786;2023-10-13T03:55:50;5.10;;;3.70;;
16543;SDS011;8384;47.996;7.786;2023-10-13T03:58:32;6.75;;;4.53;;
16543;SDS011;8384;47.996;7.786;2023-10-13T04:00:59;5.75;;;4.00;;
16543;SDS011;8384;47.996;7.786;2023-10-13T04:03:25;4.60;;;3.80;;
16543;SDS011;8384;47.996;7.786;2023-10-13T04:05:58;6.15;;;4.22;;
16543;SDS011;8384;47.996;7.786;2023-10-13T04:08:31;6.15;;;4.40;;
16543;SDS011;8384;47.996;7.786;2023-10-13T04:11:08;6.07;;;4.13;;
16543;SDS011;8384;47.996;7.786;2023-10-13T04:13:52;8.63;;;3.93;;
16543;SDS011;8384;47.996;7.786;2023-10-13T04:16:36;6.67;;;4.27;;
16543;SDS011;8384;47.996;7.786;2023-10-13T04:19:03;5.93;;;4.55;;
16543;SDS011;8384;47.996;7.786;2023-10-13T04:21:33;5.80;;;4.38;;
16543;SDS011;8384;47.996;7.786;2023-10-13T04:24:11;5.97;;;4.88;;
16543;SDS011;8384;47.996;7.786;2023-10-13T04:26:43;5.38;;;4.07;;
16543;SDS011;8384;47.996;7.786;2023-10-13T04:29:44;7.00;;;4.60;;
16543;SDS011;8384;47.996;7.786;2023-10-13T04:32:21;8.73;;;4.97;;
16543;SDS011;8384;47.996;7.786;2023-10-13T04:35:03;6.63;;;4.10;;
16543;SDS011;8384;47.996;7.786;2023-10-13T04:37:43;6.95;;;4.45;;
16543;SDS011;8384;47.996;7.786;2023-10-13T04:40:26;5.73;;;4.27;;
16543;SDS011;8384;47.996;7.786;2023-10-13T04:42:53;9.15;;;5.10;;
16543;SDS011;8384;47.996;7.786;2023-10-13T04:45:21;7.28;;;4.63;;
16543;SDS011;8384;47.996;7.786;2023-10-13T04:47:55;8.03;;;4.83;;
16543;SDS011;8384;47.996;7.786;2023-10-13T04:50:40;7.70;;;4.60;;
16543;SDS011;8384;47.996;7.786;2023-10-13T04:53:12;8.60;;;5.13;;
16543;SDS011;8384;47.996;7.786;2023-10-13T04:55:54;5.72;;;4.22;;
16543;SDS011;8384;47.996;7.786;2023-10-13T04:58:29;6.50;;;4.43;;
16543;SDS011;8384;47.996;7.786;2023-10-13T05:01:03;7.00;;;4.57;;
16543;SDS011;8384;47.996;7.786;2023-10-13T05:03:47;7.15;;;4.60;;
16543;SDS011;8384;47.996;7.786;2023-10-13T05:06:19;7.63;;;4.43;;
16543;SDS011;8384;47.996;7.786;2023-10-13T05:09:03;7.40;;;4.70;;
16543;SDS011;8384;47.996;7.786;2023-10-13T05:11:47;6.50;;;4.63;;
16543;SDS011;8384;47.996;7.786;2023-10-13T05:14:31;9.07;;;4.53;;
16543;SDS011;8384;47.996;7.786;2023-10-13T05:17:15;7.22;;;4.22;;
16543;SDS011;8384;47.996;7.786;2023-10-13T05:19:59;5.82;;;4.25;;
16543;SDS011;8384;47.996;7.786;2023-10-13T05:22:50;7.38;;;4.90;;
16543;SDS011;8384;47.996;7.786;2023-10-13T05:25:35;5.45;;;4.32;;
16543;SDS011;8384;47.996;7.786;2023-10-13T05:28:19;5.78;;;4.50;;
16543;SDS011;8384;47.996;7.786;2023-10-13T05:31:03;6.90;;;4.75;;
16543;SDS011;8384;47.996;7.786;2023-10-13T05:33:47;6.65;;;4.35;;
16543;SDS011;8384;47.996;7.786;2023-10-13T05:36:31;6.95;;;4.47;;
16543;SDS011;8384;47.996;7.786;2023-10-13T05:39:16;6.72;;;4.60;;
16543;SDS011;8384;47.996;7.786;2023-10-13T05:42:00;7.05;;;4.88;;
16543;SDS011;8384;47.996;7.786;2023-10-13T05:44:44;8.23;;;5.22;;
16543;SDS011;8384;47.996;7.786;2023-10-13T05:47:21;6.93;;;4.57;;
16543;SDS011;8384;47.996;7.786;2023-10-13T05:50:08;5.60;;;4.38;;
16543;SDS011;8384;47.996;7.786;2023-10-13T05:52:47;7.55;;;4.70;;
16543;SDS011;8384;47.996;7.786;2023-10-13T05:55:22;5.20;;;4.35;;
16543;SDS011;8384;47.996;7.786;2023-10-13T05:58:15;6.68;;;4.40;;
16543;SDS011;8384;47.996;7.786;2023-10-13T06:00:59;9.70;;;5.32;;
16543;SDS011;8384;47.996;7.786;2023-10-13T06:03:44;8.75;;;5.30;;
16543;SDS011;8384;47.996;7.786;2023-10-13T06:06:27;6.60;;;5.00;;
16543;SDS011;8384;47.996;7.786;2023-10-13T06:09:11;5.85;;;4.90;;
16543;SDS011;8384;47.996;7.786;2023-10-13T06:11:55;8.60;;;5.20;;
16543;SDS011;8384;47.996;7.786;2023-10-13T06:14:39;7.50;;;5.00;;
16543;SDS011;8384;47.996;7.786;2023-10-13T06:17:23;6.72;;;5.15;;
16543;SDS011;8384;47.996;7.786;2023-10-13T06:20:07;7.70;;;5.25;;
16543;SDS011;8384;47.996;7.786;2023-10-13T06:22:51;6.32;;;4.88;;
16543;SDS011;8384;47.996;7.786;2023-10-13T06:25:35;7.32;;;4.90;;
16543;SDS011;8384;47.996;7.786;2023-10-13T06:28:21;6.80;;;5.03;;
16543;SDS011;8384;47.996;7.786;2023-10-13T06:31:04;7.90;;;5.25;;
16543;SDS011;8384;47.996;7.786;2023-10-13T06:33:33;7.50;;;5.07;;
16543;SDS011;8384;47.996;7.786;2023-10-13T06:36:01;8.02;;;5.28;;
16543;SDS011;8384;47.996;7.786;2023-10-13T06:38:28;5.57;;;4.53;;
16543;SDS011;8384;47.996;7.786;2023-10-13T06:41:01;6.97;;;4.82;;
16543;SDS011;8384;47.996;7.786;2023-10-13T06:43:36;7.75;;;4.43;;
16543;SDS011;8384;47.996;7.786;2023-10-13T06:46:08;7.33;;;4.70;;
16543;SDS011;8384;47.996;7.786;2023-10-13T06:48:39;7.13;;;4.85;;
16543;SDS011;8384;47.996;7.786;2023-10-13T06:51:06;7.30;;;4.95;;
16543;SDS011;8384;47.996;7.786;2023-10-13T06:53:43;6.70;;;4.57;;
16543;SDS011;8384;47.996;7.786;2023-10-13T06:56:12;7.10;;;4.97;;
16543;SDS011;8384;47.996;7.786;2023-10-13T06:58:43;6.18;;;4.50;;
16543;SDS011;8384;47.996;7.786;2023-10-13T07:01:09;9.95;;;5.00;;
16543;SDS011;8384;47.996;7.786;2023-10-13T07:03:40;6.05;;;4.55;;
16543;SDS011;8384;47.996;7.786;2023-10-13T07:06:06;8.52;;;5.13;;
16543;SDS011;8384;47.996;7.786;2023-10-13T07:08:36;6.43;;;4.68;;
16543;SDS011;8384;47.996;7.786;2023-10-13T07:11:02;8.15;;;4.90;;
16543;SDS011;8384;47.996;7.786;2023-10-13T07:13:30;5.45;;;4.30;;
16543;SDS011;8384;47.996;7.786;2023-10-13T07:15:56;6.15;;;4.40;;
16543;SDS011;8384;47.996;7.786;2023-10-13T07:18:33;5.95;;;4.35;;
16543;SDS011;8384;47.996;7.786;2023-10-13T07:21:08;6.47;;;4.80;;
16543;SDS011;8384;47.996;7.786;2023-10-13T07:23:37;6.72;;;4.60;;
16543;SDS011;8384;47.996;7.786;2023-10-13T07:26:04;7.05;;;4.70;;
16543;SDS011;8384;47.996;7.786;2023-10-13T07:28:31;5.60;;;4.40;;
16543;SDS011;8384;47.996;7.786;2023-10-13T07:31:01;5.38;;;4.28;;
16543;SDS011;8384;47.996;7.786;2023-10-13T07:33:27;7.80;;;4.60;;
16543;SDS011;8384;47.996;7.786;2023-10-13T07:35:59;8.65;;;4.82;;
16543;SDS011;8384;47.996;7.786;2023-10-13T07:38:53;9.07;;;4.90;;
16543;SDS011;8384;47.996;7.786;2023-10-13T07:41:44;8.05;;;4.72;;
16543;SDS011;8384;47.996;7.786;2023-10-13T07:44:12;9.77;;;4.80;;
16543;SDS011;8384;47.996;7.786;2023-10-13T07:46:38;9.20;;;5.03;;
16543;SDS011;8384;47.996;7.786;2023-10-13T07:49:03;10.63;;;4.97;;
16543;SDS011;8384;47.996;7.786;2023-10-13T07:51:36;9.90;;;4.70;;
16543;SDS011;8384;47.996;7.786;2023-10-13T07:54:09;11.73;;;4.53;;
16543;SDS011;8384;47.996;7.786;2023-10-13T07:56:47;7.28;;;4.65;;
16543;SDS011;8384;47.996;7.786;2023-10-13T07:59:15;9.63;;;4.90;;
16543;SDS011;8384;47.996;7.786;2023-10-13T08:01:41;12.10;;;4.90;;
16543;SDS011;8384;47.996;7.786;2023-10-13T08:04:10;11.45;;;5.25;;
16543;SDS011;8384;47.996;7.786;2023-10-13T08:06:36;8.50;;;4.80;;
16543;SDS011;8384;47.996;7.786;2023-10-13T08:09:01;8.80;;;4.20;;
16543;SDS011;8384;47.996;7.786;2023-10-13T08:11:53;10.13;;;4.50;;
16543;SDS011;8384;47.996;7.786;2023-10-13T08:14:19;7.40;;;4.30;;
16543;SDS011;8384;47.996;7.786;2023-10-13T08:16:54;10.52;;;5.00;;
16543;SDS011;8384;47.996;7.786;2023-10-13T08:19:20;8.53;;;4.17;;
16543;SDS011;8384;47.996;7.786;2023-10-13T08:21:53;9.07;;;4.03;;
16543;SDS011;8384;47.996;7.786;2023-10-13T08:24:24;8.10;;;4.15;;
16543;SDS011;8384;47.996;7.786;2023-10-13T08:26:54;7.45;;;3.60;;
16543;SDS011;8384;47.996;7.786;2023-10-13T08:29:28;6.93;;;3.80;;
16543;SDS011;8384;47.996;7.786;2023-10-13T08:31:53;6.77;;;3.80;;
16543;SDS011;8384;47.996;7.786;2023-10-13T08:34:29;9.90;;;3.92;;
16543;SDS011;8384;47.996;7.786;2023-10-13T08:37:04;7.88;;;4.38;;
16543;SDS011;8384;47.996;7.786;2023-10-13T08:39:51;8.52;;;3.85;;
16543;SDS011;8384;47.996;7.786;2023-10-13T08:47:45;6.18;;;3.70;;
16543;SDS011;8384;47.996;7.786;2023-10-13T08:50:38;8.60;;;3.88;;
16543;SDS011;8384;47.996;7.786;2023-10-13T08:53:14;9.45;;;4.00;;
16543;SDS011;8384;47.996;7.786;2023-10-13T08:56:07;8.35;;;3.75;;
16543;SDS011;8384;47.996;7.786;2023-10-13T08:58:42;10.25;;;4.10;;
16543;SDS011;8384;47.996;7.786;2023-10-13T09:01:21;9.38;;;3.83;;
16543;SDS011;8384;47.996;7.786;2023-10-13T09:04:04;7.32;;;3.83;;
16543;SDS011;8384;47.996;7.786;2023-10-13T09:06:56;8.88;;;3.90;;
16543;SDS011;8384;47.996;7.786;2023-10-13T09:12:27;7.68;;;3.90;;
16543;SDS011;8384;47.996;7.786;2023-10-13T09:14:57;9.95;;;4.00;;
16543;SDS011;8384;47.996;7.786;2023-10-13T09:17:27;9.82;;;3.92;;
16543;SDS011;8384;47.996;7.786;2023-10-13T09:19:58;7.67;;;3.63;;
16543;SDS011;8384;47.996;7.786;2023-10-13T09:22:47;9.18;;;3.70;;
16543;SDS011;8384;47.996;7.786;2023-10-13T09:25:31;9.30;;;3.80;;
16543;SDS011;8384;47.996;7.786;2023-10-13T09:28:12;8.60;;;3.60;;
16543;SDS011;8384;47.996;7.786;2023-10-13T09:30:46;10.75;;;3.78;;
16543;SDS011;8384;47.996;7.786;2023-10-13T09:33:19;7.53;;;3.80;;
16543;SDS011;8384;47.996;7.786;2023-10-13T09:35:58;7.40;;;3.85;;
16543;SDS011;8384;47.996;7.786;2023-10-13T09:38:24;9.95;;;3.95;;
16543;SDS011;8384;47.996;7.786;2023-10-13T09:40:50;8.10;;;3.83;;
16543;SDS011;8384;47.996;7.786;2023-10-13T09:43:22;9.10;;;3.70;;
16543;SDS011;8384;47.996;7.786;2023-10-13T09:45:48;9.48;;;3.50;;
16543;SDS011;8384;47.996;7.786;2023-10-13T09:48:41;6.70;;;3.53;;
16543;SDS011;8384;47.996;7.786;2023-10-13T09:51:12;10.43;;;3.83;;
16543;SDS011;8384;47.996;7.786;2023-10-13T09:53:38;12.68;;;3.70;;
16543;SDS011;8384;47.996;7.786;2023-10-13T09:56:08;8.93;;;3.60;;
16543;SDS011;8384;47.996;7.786;2023-10-13T09:58:48;8.57;;;3.63;;
16543;SDS011;8384;47.996;7.786;2023-10-13T10:01:24;11.20;;;3.83;;
16543;SDS011;8384;47.996;7.786;2023-10-13T10:04:08;11.05;;;3.78;;
16543;SDS011;8384;47.996;7.786;2023-10-13T10:06:36;9.15;;;3.67;;
16543;SDS011;8384;47.996;7.786;2023-10-13T10:09:06;9.27;;;3.55;;
16543;SDS011;8384;47.996;7.786;2023-10-13T10:14:44;9.43;;;3.40;;
16543;SDS011;8384;47.996;7.786;2023-10-13T10:17:38;8.98;;;3.22;;
16543;SDS011;8384;47.996;7.786;2023-10-13T10:20:05;7.28;;;3.50;;
16543;SDS011;8384;47.996;7.786;2023-10-13T10:22:39;8.68;;;3.47;;
16543;SDS011;8384;47.996;7.786;2023-10-13T10:25:09;9.98;;;3.35;;
16543;SDS011;8384;47.996;7.786;2023-10-13T10:28:00;8.43;;;3.30;;
16543;SDS011;8384;47.996;7.786;2023-10-13T10:30:38;7.45;;;3.28;;
16543;SDS011;8384;47.996;7.786;2023-10-13T10:33:04;8.13;;;3.28;;
16543;SDS011;8384;47.996;7.786;2023-10-13T10:35:37;7.88;;;3.40;;
16543;SDS011;8384;47.996;7.786;2023-10-13T10:40:54;8.32;;;3.10;;
16543;SDS011;8384;47.996;7.786;2023-10-13T10:46:12;5.53;;;3.22;;
16543;SDS011;8384;47.996;7.786;2023-10-13T10:48:39;9.07;;;3.20;;
16543;SDS011;8384;47.996;7.786;2023-10-13T10:51:11;5.93;;;3.30;;
16543;SDS011;8384;47.996;7.786;2023-10-13T10:53:56;6.78;;;3.13;;
16543;SDS011;8384;47.996;7.786;2023-10-13T10:56:36;6.40;;;3.00;;
16543;SDS011;8384;47.996;7.786;2023-10-13T10:59:01;5.67;;;3.20;;
16543;SDS011;8384;47.996;7.786;2023-10-13T11:01:27;6.75;;;3.30;;
16543;SDS011;8384;47.996;7.786;2023-10-13T11:04:12;8.18;;;3.40;;
16543;SDS011;8384;47.996;7.786;2023-10-13T11:06:58;7.30;;;3.10;;
16543;SDS011;8384;47.996;7.786;2023-10-13T11:09:30;6.50;;;3.10;;
16543;SDS011;8384;47.996;7.786;2023-10-13T11:11:57;6.05;;;3.20;;
16543;SDS011;8384;47.996;7.786;2023-10-13T11:14:38;6.30;;;3.20;;
16543;SDS011;8384;47.996;7.786;2023-10-13T11:17:04;7.35;;;3.20;;
16543;SDS011;8384;47.996;7.786;2023-10-13T11:19:38;7.45;;;3.28;;
16543;SDS011;8384;47.996;7.786;2023-10-13T11:22:12;8.88;;;3.50;;
16543;SDS011;8384;47.996;7.786;2023-10-13T11:25:00;7.32;;;3.22;;
16543;SDS011;8384;47.996;7.786;2023-10-13T11:27:37;6.37;;;3.10;;
16543;SDS011;8384;47.996;7.786;2023-10-13T11:30:23;7.30;;;3.17;;
16543;SDS011;8384;47.996;7.786;2023-10-13T11:33:02;6.25;;;3.10;;
16543;SDS011;8384;47.996;7.786;2023-10-13T11:35:31;7.33;;;3.30;;
16543;SDS011;8384;47.996;7.786;2023-10-13T11:38:14;6.00;;;3.28;;
16543;SDS011;8384;47.996;7.786;2023-10-13T11:40:41;6.07;;;3.17;;
16543;SDS011;8384;47.996;7.786;2023-10-13T11:43:24;6.35;;;3.33;;
16543;SDS011;8384;47.996;7.786;2023-10-13T11:45:50;5.60;;;3.30;;
16543;SDS011;8384;47.996;7.786;2023-10-13T11:48:37;5.57;;;3.10;;
16543;SDS011;8384;47.996;7.786;2023-10-13T11:51:05;6.07;;;3.22;;
16543;SDS011;8384;47.996;7.786;2023-10-13T11:53:34;8.40;;;3.20;;
16543;SDS011;8384;47.996;7.786;2023-10-13T11:56:00;9.70;;;3.53;;
16543;SDS011;8384;47.996;7.786;2023-10-13T11:58:34;7.78;;;3.30;;
16543;SDS011;8384;47.996;7.786;2023-10-13T12:00:59;7.07;;;3.50;;
16543;SDS011;8384;47.996;7.786;2023-10-13T12:03:40;9.95;;;3.40;;
16543;SDS011;8384;47.996;7.786;2023-10-13T12:06:25;9.02;;;3.65;;
16543;SDS011;8384;47.996;7.786;2023-10-13T12:09:00;6.35;;;3.03;;
16543;SDS011;8384;47.996;7.786;2023-10-13T12:11:37;7.00;;;3.30;;
16543;SDS011;8384;47.996;7.786;2023-10-13T12:14:04;7.68;;;3.67;;
16543;SDS011;8384;47.996;7.786;2023-10-13T12:16:41;7.22;;;3.30;;
16543;SDS011;8384;47.996;7.786;2023-10-13T12:19:07;8.52;;;3.55;;
16543;SDS011;8384;47.996;7.786;2023-10-13T12:21:36;6.93;;;3.35;;
16543;SDS011;8384;47.996;7.786;2023-10-13T12:24:02;6.90;;;3.33;;
16543;SDS011;8384;47.996;7.786;2023-10-13T12:26:28;5.67;;;3.40;;
16543;SDS011;8384;47.996;7.786;2023-10-13T12:28:58;6.85;;;3.50;;
16543;SDS011;8384;47.996;7.786;2023-10-13T12:31:31;6.70;;;3.33;;
16543;SDS011;8384;47.996;7.786;2023-10-13T12:33:57;6.93;;;3.15;;
16543;SDS011;8384;47.996;7.786;2023-10-13T12:36:31;6.88;;;3.38;;
16543;SDS011;8384;47.996;7.786;2023-10-13T12:39:18;7.07;;;3.30;;
16543;SDS011;8384;47.996;7.786;2023-10-13T12:42:02;5.28;;;3.40;;
16543;SDS011;8384;47.996;7.786;2023-10-13T12:44:46;9.68;;;3.53;;
16543;SDS011;8384;47.996;7.786;2023-10-13T12:47:30;6.72;;;3.20;;
16543;SDS011;8384;47.996;7.786;2023-10-13T12:50:14;8.85;;;3.50;;
16543;SDS011;8384;47.996;7.786;2023-10-13T12:52:49;6.88;;;3.30;;
16543;SDS011;8384;47.996;7.786;2023-10-13T12:55:14;6.17;;;3.20;;
16543;SDS011;8384;47.996;7.786;2023-10-13T12:57:44;5.90;;;3.25;;
16543;SDS011;8384;47.996;7.786;2023-10-13T13:00:10;6.30;;;3.33;;
16543;SDS011;8384;47.996;7.786;2023-10-13T13:02:46;4.55;;;3.00;;
16543;SDS011;8384;47.996;7.786;2023-10-13T13:05:11;6.53;;;3.30;;
16543;SDS011;8384;47.996;7.786;2023-10-13T13:07:39;7.67;;;3.23;;
16543;SDS011;8384;47.996;7.786;2023-10-13T13:10:12;8.10;;;3.20;;
16543;SDS011;8384;47.996;7.786;2023-10-13T13:12:38;5.15;;;3.10;;
16543;SDS011;8384;47.996;7.786;2023-10-13T13:15:04;6.38;;;3.50;;
16543;SDS011;8384;47.996;7.786;2023-10-13T13:17:33;8.97;;;3.37;;
16543;SDS011;8384;47.996;7.786;2023-10-13T13:20:03;6.80;;;3.30;;
16543;SDS011;8384;47.996;7.786;2023-10-13T13:22:36;6.63;;;3.03;;
16543;SDS011;8384;47.996;7.786;2023-10-13T13:25:04;5.13;;;3.08;;
16543;SDS011;8384;47.996;7.786;2023-10-13T13:27:34;5.18;;;2.78;;
16543;SDS011;8384;47.996;7.786;2023-10-13T13:30:01;8.63;;;3.30;;
16543;SDS011;8384;47.996;7.786;2023-10-13T13:32:27;7.20;;;2.90;;
16543;SDS011;8384;47.996;7.786;2023-10-13T13:34:53;6.63;;;3.20;;
16543;SDS011;8384;47.996;7.786;2023-10-13T13:37:32;6.03;;;3.33;;
16543;SDS011;8384;47.996;7.786;2023-10-13T13:39:58;7.03;;;2.97;;
16543;SDS011;8384;47.996;7.786;2023-10-13T13:42:39;7.53;;;3.15;;
16543;SDS011;8384;47.996;7.786;2023-10-13T13:45:14;6.80;;;2.90;;
16543;SDS011;8384;47.996;7.786;2023-10-13T13:47:47;5.70;;;2.90;;
16543;SDS011;8384;47.996;7.786;2023-10-13T13:50:19;5.20;;;2.65;;
16543;SDS011;8384;47.996;7.786;2023-10-13T13:52:55;4.85;;;2.60;;
16543;SDS011;8384;47.996;7.786;2023-10-13T13:55:22;5.65;;;2.83;;
16543;SDS011;8384;47.996;7.786;2023-10-13T13:57:48;4.88;;;2.80;;
16543;SDS011;8384;47.996;7.786;2023-10-13T14:00:15;6.75;;;2.90;;
16543;SDS011;8384;47.996;7.786;2023-10-13T14:02:43;5.90;;;2.77;;
16543;SDS011;8384;47.996;7.786;2023-10-13T14:05:15;5.75;;;2.80;;
16543;SDS011;8384;47.996;7.786;2023-10-13T14:07:44;5.53;;;2.60;;
16543;SDS011;8384;47.996;7.786;2023-10-13T14:10:18;4.97;;;2.63;;
16543;SDS011;8384;47.996;7.786;2023-10-13T14:13:04;4.63;;;2.50;;
16543;SDS011;8384;47.996;7.786;2023-10-13T14:15:38;5.50;;;2.97;;
16543;SDS011;8384;47.996;7.786;2023-10-13T14:18:09;3.55;;;2.60;;
16543;SDS011;8384;47.996;7.786;2023-10-13T14:20:39;4.40;;;2.53;;
16543;SDS011;8384;47.996;7.786;2023-10-13T14:23:06;5.40;;;2.80;;
16543;SDS011;8384;47.996;7.786;2023-10-13T14:25:34;5.97;;;2.88;;
16543;SDS011;8384;47.996;7.786;2023-10-13T14:28:02;5.72;;;2.70;;
16543;SDS011;8384;47.996;7.786;2023-10-13T14:30:30;6.83;;;2.70;;
16543;SDS011;8384;47.996;7.786;2023-10-13T14:32:56;5.57;;;2.60;;
16543;SDS011;8384;47.996;7.786;2023-10-13T14:35:23;6.25;;;2.80;;
16543;SDS011;8384;47.996;7.786;2023-10-13T14:37:50;6.30;;;2.88;;
16543;SDS011;8384;47.996;7.786;2023-10-13T14:40:16;5.93;;;2.67;;
16543;SDS011;8384;47.996;7.786;2023-10-13T14:42:46;5.82;;;2.67;;
16543;SDS011;8384;47.996;7.786;2023-10-13T14:45:11;7.47;;;2.60;;
16543;SDS011;8384;47.996;7.786;2023-10-13T14:47:41;7.47;;;3.10;;
16543;SDS011;8384;47.996;7.786;2023-10-13T14:50:10;5.90;;;3.03;;
16543;SDS011;8384;47.996;7.786;2023-10-13T14:52:44;6.07;;;2.70;;
16543;SDS011;8384;47.996;7.786;2023-10-13T14:55:10;5.65;;;2.85;;
16543;SDS011;8384;47.996;7.786;2023-10-13T14:57:44;5.05;;;2.50;;
16543;SDS011;8384;47.996;7.786;2023-10-13T15:00:11;7.88;;;2.97;;
16543;SDS011;8384;47.996;7.786;2023-10-13T15:02:39;6.13;;;2.80;;
16543;SDS011;8384;47.996;7.786;2023-10-13T15:05:04;6.63;;;3.10;;
16543;SDS011;8384;47.996;7.786;2023-10-13T15:07:29;6.00;;;3.00;;
16543;SDS011;8384;47.996;7.786;2023-10-13T15:09:55;5.57;;;2.90;;
16543;SDS011;8384;47.996;7.786;2023-10-13T15:12:22;6.22;;;2.95;;
16543;SDS011;8384;47.996;7.786;2023-10-13T15:14:47;7.27;;;3.10;;
16543;SDS011;8384;47.996;7.786;2023-10-13T15:17:12;5.05;;;2.75;;
16543;SDS011;8384;47.996;7.786;2023-10-13T15:19:41;5.85;;;2.90;;
16543;SDS011;8384;47.996;7.786;2023-10-13T15:22:08;4.28;;;2.70;;
16543;SDS011;8384;47.996;7.786;2023-10-13T15:24:46;5.93;;;2.90;;
16543;SDS011;8384;47.996;7.786;2023-10-13T15:27:24;7.17;;;2.90;;
16543;SDS011;8384;47.996;7.786;2023-10-13T15:29:50;6.83;;;3.00;;
16543;SDS011;8384;47.996;7.786;2023-10-13T15:32:16;8.15;;;2.90;;
16543;SDS011;8384;47.996;7.786;2023-10-13T15:34:59;8.23;;;2.85;;
16543;SDS011;8384;47.996;7.786;2023-10-13T15:37:25;5.47;;;2.80;;
16543;SDS011;8384;47.996;7.786;2023-10-13T15:39:50;5.43;;;2.60;;
16543;SDS011;8384;47.996;7.786;2023-10-13T15:42:15;8.60;;;3.00;;
16543;SDS011;8384;47.996;7.786;2023-10-13T15:44:40;8.60;;;3.00;;
16543;SDS011;8384;47.996;7.786;2023-10-13T15:47:08;6.22;;;2.80;;
16543;SDS011;8384;47.996;7.786;2023-10-13T15:49:37;5.45;;;2.95;;
16543;SDS011;8384;47.996;7.786;2023-10-13T15:52:06;6.30;;;2.95;;
16543;SDS011;8384;47.996;7.786;2023-10-13T15:54:31;5.93;;;2.80;;
16543;SDS011;8384;47.996;7.786;2023-10-13T15:56:56;7.60;;;2.80;;